METAR AND TAF INFORMATION
METAR FOR YMAV
ADDS - METARS form results

(1644 UTC 15 July 2020)
Data provider http://aviationweather.gov/metar/data/
 
METAR text: YMAV 151630Z AUTO 32004KT 1200 // NCD 02/02 Q1023 RF00.0/000.2
Conditions at: YMAV (AVALON AIRPORT , AU) observed 1630 UTC 15 July 2020
Temperature: 2.0°C (36°F)
Dewpoint: 2.0°C (36°F) [RH = 100%]
Pressure (altimeter): 30.21 inches Hg (1023.0 mb)
Winds: from the NW (320 degrees) at 5 MPH (4 knots; 2.1 m/s)
Visibility: 0.75 miles (1.21 km)
Ceiling: at least 12,000 feet AGL
Clouds: sky clear below 12,000 feet AGL
Weather: no significant weather observed at this time

METAR text: YMAV 151625Z AUTO 31004KT 6000 // NCD 02/02 Q1023 RF00.0/000.2
Conditions at: YMAV (AVALON AIRPORT , AU) observed 1625 UTC 15 July 2020
Temperature: 2.0°C (36°F)
Dewpoint: 2.0°C (36°F) [RH = 100%]
Pressure (altimeter): 30.21 inches Hg (1023.0 mb)
Winds: from the NW (310 degrees) at 5 MPH (4 knots; 2.1 m/s)
Visibility: 4 miles ( 6 km)
Ceiling: at least 12,000 feet AGL
Clouds: sky clear below 12,000 feet AGL
Weather: no significant weather observed at this time

METAR text: YMAV 151618Z AUTO 31005KT 9999 // NCD 02/02 Q1023 RF00.0/000.2
Conditions at: YMAV (AVALON AIRPORT , AU) observed 1618 UTC 15 July 2020
Temperature: 2.0°C (36°F)
Dewpoint: 2.0°C (36°F) [RH = 100%]
Pressure (altimeter): 30.21 inches Hg (1023.0 mb)
Winds: from the NW (310 degrees) at 6 MPH (5 knots; 2.6 m/s)
Visibility: 6 or more miles (10+ km)
Ceiling: at least 12,000 feet AGL
Clouds: sky clear below 12,000 feet AGL
Weather: no significant weather observed at this time

METAR text: YMAV 151605Z AUTO 31006KT 6000 // NCD 02/02 Q1023
Conditions at: YMAV (AVALON AIRPORT , AU) observed 1605 UTC 15 July 2020
Temperature: 2.0°C (36°F)
Dewpoint: 2.0°C (36°F) [RH = 100%]
Pressure (altimeter): 30.21 inches Hg (1023.0 mb)
Winds: from the NW (310 degrees) at 7 MPH (6 knots; 3.1 m/s)
Visibility: 4 miles ( 6 km)
Ceiling: at least 12,000 feet AGL
Clouds: sky clear below 12,000 feet AGL
Weather: no significant weather observed at this time

METAR text: YMAV 151600Z AUTO 31006KT 7000 // NCD 02/02 Q1023
Conditions at: YMAV (AVALON AIRPORT , AU) observed 1600 UTC 15 July 2020
Temperature: 2.0°C (36°F)
Dewpoint: 2.0°C (36°F) [RH = 100%]
Pressure (altimeter): 30.21 inches Hg (1023.0 mb)
Winds: from the NW (310 degrees) at 7 MPH (6 knots; 3.1 m/s)
Visibility: 4 miles ( 7 km)
Ceiling: at least 12,000 feet AGL
Clouds: sky clear below 12,000 feet AGL
Weather: no significant weather observed at this time

Forecast for: AMD
Text: TAF AMD YMAV 151448Z 1515/1612 31005KT 6000 HZ FEW006
Forecast period: 1500 to 2200 UTC 15 July 2020
Forecast type: FROM: standard forecast or significant change
Winds: from the NW (310 degrees) at 6 MPH (5 knots; 2.6 m/s)
Visibility: 4 miles (6 km)
Ceiling: at least 12,000 feet AGL
Clouds: few clouds at 600 feet AGL
Weather: HZ  (haze)
Text: BECMG 1522/1600 VRB03KT CAVOK
Forecast period: 2200 UTC 15 July 2020 to 0400 UTC 16 July 2020
Forecast type: BECOMING: Conditions expected to become as follows by 0000 UTC 16 July 2020
Winds: variable direction winds at 3 MPH (3 knots; 1.5 m/s)
Visibility: 6 or more miles 10+ km)
Ceiling: unknown
Clouds: missing
Weather: NSW  (no significant weather)
Text: FM160400 14008KT CAVOK
Forecast period: 0400 to 1200 UTC 16 July 2020
Forecast type: FROM: standard forecast or significant change
Winds: from the SE (140 degrees) at 9 MPH (8 knots; 4.1 m/s)
Visibility: 6 or more miles 10+ km)
Ceiling: unknown
Clouds: missing
Weather: NSW  (no significant weather)
Text: PROB30 1515/1523 0500 FG BKN001
Forecast period: 1500 to 2300 UTC 15 July 2020
Forecast type: PROBABLE: 30 percent likelihood of the following during this time
Visibility: 0.31 miles (0.50 km)
Ceiling: 100 feet AGL
Clouds: broken clouds at 100 feet AGL
Weather: FG  (fog)

 AIRPORT MAP

 RUNWAY INFORMATION
Runway 18 Runway length 10000 ft Runway width 148 ft
Runway elevation 32 ft Runway displaced threshold 0 ft Runway heading 188
Runway 36 Runway length 10000 ft Runway width 148 ft
Runway elevation 34 ft Runway displaced threshold 0 ft Runway heading 8

 AIRPORT FREQUENCIES
Type ATIS Name ATIS Frequency 116.1 MHZ
Type CTAF Name CTAF Frequency 120.1 MHZ
Type FSS Name MELBOURNE Frequency 135.7 MHZ
Type TWR Name TWR Frequency 120.1 MHZ
Type UNIC Name FLIGHT OPS Frequency 129.3 MHZ

 AIRPORT NEAR NAVIGATION AIDS
Type VOR-DME Name Avalon Frequency 116100 KHZ
Type NDB Name Avalon Frequency 404 KHZ
Type NDB Name Ripley (Decommissioned) Frequency 224 KHZ



Powered by Virtual Airlines Manager [v2.6.2]